Time;durP1;ratioP1;P1;durP2;ratioP2;P2;SDS_P1;SDS_P2;PMS_P1;PMS_P2;Temp;Humidity;BMP_temperature;BMP_pressure;BME280_temperature;BME280_humidity;BME280_pressure;Samples;Min_cycle;Max_cycle;Signal;HPM_P1;HPM_P2
2022/11/03 00:01:45;;;;;;;6.13;1.50;;;8.90;99.90;;;;;;5029508;28;20058;-75
2022/11/03 00:04:14;;;;;;;19.83;3.17;;;8.90;99.90;;;;;;5028366;28;20017;-74
2022/11/03 00:06:42;;;;;;;2.80;1.38;;;8.90;99.90;;;;;;5029592;28;20040;-74
2022/11/03 00:09:11;;;;;;;5.30;1.50;;;8.90;99.90;;;;;;5030953;28;20387;-74
2022/11/03 00:11:39;;;;;;;13.88;2.67;;;8.90;99.90;;;;;;5030852;28;20022;-74
2022/11/03 00:14:06;;;;;;;12.20;3.08;;;8.90;99.90;;;;;;5028900;28;20129;-74
2022/11/03 00:16:32;;;;;;;10.00;2.00;;;9.00;99.90;;;;;;5033282;28;20022;-74
2022/11/03 00:18:58;;;;;;;7.22;1.33;;;8.90;99.90;;;;;;5034707;28;20123;-74
2022/11/03 00:21:23;;;;;;;7.25;1.80;;;9.00;99.90;;;;;;5034625;28;20108;-74
2022/11/03 00:23:50;;;;;;;1.67;1.02;;;9.00;99.90;;;;;;5033727;28;20416;-74
2022/11/03 00:26:22;;;;;;;5.53;1.20;;;9.00;99.90;;;;;;5033344;28;20036;-74
2022/11/03 00:28:51;;;;;;;4.93;1.98;;;9.00;99.90;;;;;;5033303;28;20033;-74
2022/11/03 00:31:26;;;;;;;3.42;1.60;;;8.90;99.90;;;;;;5033253;28;20132;-75
2022/11/03 00:33:53;;;;;;;4.20;1.65;;;8.90;99.90;;;;;;5033729;28;20036;-74
2022/11/03 00:36:29;;;;;;;9.95;2.22;;;9.00;99.90;;;;;;5032929;28;20099;-74
2022/11/03 00:38:56;;;;;;;4.88;1.05;;;9.00;99.90;;;;;;5033069;28;20079;-75
2022/11/03 00:41:23;;;;;;;4.72;1.48;;;9.00;99.90;;;;;;5034282;28;20018;-74
2022/11/03 00:43:50;;;;;;;9.52;2.30;;;9.00;99.90;;;;;;5015775;28;20033;-74
2022/11/03 00:46:17;;;;;;;2.38;1.48;;;8.90;99.90;;;;;;5034221;28;20164;-74
2022/11/03 00:48:43;;;;;;;2.17;1.00;;;8.90;99.90;;;;;;5032961;28;20037;-74
2022/11/03 00:51:21;;;;;;;10.35;2.38;;;8.90;99.90;;;;;;5034178;28;20389;-74
2022/11/03 00:53:56;;;;;;;4.55;1.90;;;8.80;99.90;;;;;;5032030;28;20732;-74
2022/11/03 00:56:26;;;;;;;4.35;1.40;;;8.80;99.90;;;;;;5032759;28;20029;-74
2022/11/03 00:58:53;;;;;;;4.25;1.40;;;8.90;99.90;;;;;;5033886;28;20071;-75
2022/11/03 01:01:21;;;;;;;2.00;1.35;;;8.80;99.90;;;;;;5032584;28;20021;-74
2022/11/03 01:06:50;;;;;;;2.95;1.08;;;8.80;99.90;;;;;;5032663;28;20474;-74
2022/11/03 01:09:27;;;;;;;2.15;1.42;;;8.90;99.90;;;;;;5034068;28;20045;-74
2022/11/03 01:12:01;;;;;;;5.05;1.50;;;8.80;99.90;;;;;;5033791;28;20128;-74
2022/11/03 01:14:37;;;;;;;5.05;1.90;;;8.80;99.90;;;;;;5032717;28;20049;-74
2022/11/03 01:17:15;;;;;;;10.23;2.65;;;8.70;99.90;;;;;;5033589;28;20041;-75
2022/11/03 01:19:41;;;;;;;6.32;1.45;;;8.70;99.90;;;;;;5033360;28;20032;-74
2022/11/03 01:22:07;;;;;;;4.97;2.72;;;8.70;99.90;;;;;;5032582;28;20064;-74
2022/11/03 01:24:37;;;;;;;8.55;2.17;;;8.70;99.90;;;;;;5032667;28;20116;-75
2022/11/03 01:27:02;;;;;;;13.13;2.75;;;8.80;99.90;;;;;;5032168;28;20045;-74
2022/11/03 01:29:28;;;;;;;3.90;1.40;;;8.80;99.90;;;;;;5032088;28;20033;-75
2022/11/03 01:31:54;;;;;;;4.40;2.05;;;8.90;99.90;;;;;;5033319;28;20048;-74
2022/11/03 01:34:21;;;;;;;3.58;2.08;;;8.80;99.90;;;;;;5032827;28;20029;-73
2022/11/03 01:36:47;;;;;;;2.20;1.35;;;8.70;99.90;;;;;;5032026;28;20068;-74
2022/11/03 01:39:18;;;;;;;7.25;1.48;;;8.60;99.90;;;;;;5033601;28;20037;-73
2022/11/03 01:41:48;;;;;;;4.85;2.10;;;8.60;99.90;;;;;;5033463;28;20048;-73
2022/11/03 01:44:35;;;;;;;3.70;1.90;;;8.60;99.90;;;;;;5032379;28;20159;-75
2022/11/03 01:47:30;;;;;;;2.75;1.23;;;8.60;99.90;;;;;;5031875;28;20030;-73
2022/11/03 01:50:08;;;;;;;5.80;2.33;;;8.60;99.90;;;;;;5031949;28;20547;-74
2022/11/03 01:52:51;;;;;;;6.97;1.85;;;8.60;99.90;;;;;;5032110;28;20628;-73
2022/11/03 01:55:30;;;;;;;6.65;3.00;;;8.60;99.90;;;;;;5031758;28;20069;-74
2022/11/03 01:58:13;;;;;;;5.28;1.63;;;8.60;99.90;;;;;;5031395;28;20112;-74
2022/11/03 02:00:44;;;;;;;8.57;2.80;;;8.60;99.90;;;;;;5031652;28;20492;-74
2022/11/03 02:03:11;;;;;;;2.85;1.45;;;8.70;99.90;;;;;;5030607;28;20407;-73
2022/11/03 02:05:38;;;;;;;5.55;1.75;;;8.70;99.90;;;;;;5021831;28;20053;-74
2022/11/03 02:08:12;;;;;;;9.00;2.35;;;8.70;99.90;;;;;;5011815;28;20022;-74
2022/11/03 02:10:38;;;;;;;13.68;2.28;;;8.60;99.90;;;;;;5038886;28;20025;-73
2022/11/03 02:13:19;;;;;;;11.45;2.25;;;8.60;99.90;;;;;;5031537;28;20075;-74
2022/11/03 02:15:53;;;;;;;10.85;2.50;;;8.60;99.90;;;;;;5037541;28;20034;-73
2022/11/03 02:18:24;;;;;;;9.77;1.70;;;8.60;99.90;;;;;;5011237;28;20528;-73
2022/11/03 02:21:00;;;;;;;;;;;8.60;99.90;;;;;;5012939;28;20556;-73
2022/11/03 02:24:22;;;;;;;8.40;2.42;;;8.60;99.90;;;;;;5014714;28;20297;-74
2022/11/03 02:26:49;;;;;;;7.07;3.05;;;8.60;99.90;;;;;;5031316;28;20155;-73
2022/11/03 02:29:15;;;;;;;7.43;2.17;;;8.60;99.90;;;;;;5030916;28;20473;-73
2022/11/03 02:31:47;;;;;;;5.35;2.67;;;8.60;99.90;;;;;;5031208;28;20033;-74
2022/11/03 02:34:43;;;;;;;8.88;2.53;;;8.50;99.90;;;;;;5031323;28;20057;-73
2022/11/03 02:37:16;;;;;;;3.97;2.28;;;8.50;99.90;;;;;;5016024;28;20044;-73
2022/11/03 02:40:11;;;;;;;5.95;1.88;;;8.50;99.90;;;;;;5030930;28;20029;-73
2022/11/03 02:42:43;;;;;;;5.78;1.55;;;8.50;99.90;;;;;;5010273;28;20022;-73
2022/11/03 02:45:12;;;;;;;8.88;3.92;;;8.50;99.90;;;;;;5011187;28;20029;-73
2022/11/03 02:47:40;;;;;;;11.30;1.92;;;8.50;99.90;;;;;;5012107;28;20033;-74
2022/11/03 02:50:09;;;;;;;4.47;2.13;;;8.50;99.90;;;;;;4994679;28;20485;-74
2022/11/03 02:52:40;;;;;;;4.20;1.45;;;8.50;99.90;;;;;;4993668;28;20077;-73
2022/11/03 02:55:40;;;;;;;8.73;2.13;;;8.50;99.90;;;;;;5010799;28;20085;-74
2022/11/03 02:58:18;;;;;;;12.63;1.40;;;8.40;99.90;;;;;;5011823;28;20100;-73
2022/11/03 03:00:50;;;;;;;2.25;1.17;;;8.40;99.90;;;;;;5017606;23;20459;-69
2022/11/03 03:03:20;;;;;;;2.30;0.90;;;8.40;99.90;;;;;;4993720;28;20060;-69
2022/11/03 03:05:49;;;;;;;2.55;1.23;;;8.40;99.90;;;;;;4990659;28;20121;-69
2022/11/03 03:08:16;;;;;;;3.65;1.17;;;8.30;99.90;;;;;;4989836;28;20116;-69
2022/11/03 03:10:45;;;;;;;1.95;0.98;;;8.40;99.90;;;;;;4971551;28;20035;-69
2022/11/03 03:13:18;;;;;;;7.70;1.35;;;8.30;99.90;;;;;;4971854;28;20029;-68
2022/11/03 03:16:15;;;;;;;2.55;1.50;;;8.30;99.90;;;;;;4983098;28;20116;-69
2022/11/03 03:18:50;;;;;;;11.07;1.52;;;8.30;99.90;;;;;;5005721;28;20081;-70
2022/11/03 03:21:28;;;;;;;1.55;1.02;;;8.30;99.90;;;;;;5006762;28;20122;-70
2022/11/03 03:24:00;;;;;;;3.47;0.80;;;8.20;99.90;;;;;;4990664;28;20034;-69
2022/11/03 03:26:33;;;;;;;22.55;2.20;;;8.30;99.90;;;;;;5006622;28;20034;-69
2022/11/03 03:29:19;;;;;;;2.50;1.40;;;8.20;99.90;;;;;;5006411;28;20407;-69
2022/11/03 03:31:52;;;;;;;4.97;1.52;;;8.20;99.90;;;;;;5006345;28;20121;-69
2022/11/03 03:34:20;;;;;;;2.20;1.05;;;8.20;99.90;;;;;;4989001;28;20117;-69
2022/11/03 03:36:48;;;;;;;1.10;0.82;;;8.20;99.90;;;;;;4959440;28;20086;-69
2022/11/03 03:39:17;;;;;;;3.45;1.30;;;8.20;99.90;;;;;;4970701;28;20476;-69
2022/11/03 03:41:46;;;;;;;3.35;1.35;;;8.20;99.90;;;;;;4970916;28;20030;-69
2022/11/03 03:44:12;;;;;;;1.02;0.80;;;8.20;99.90;;;;;;4970089;28;20105;-69
2022/11/03 03:46:43;;;;;;;6.88;1.25;;;8.20;99.90;;;;;;4972017;28;20544;-69
2022/11/03 03:49:09;;;;;;;6.90;2.45;;;8.20;99.90;;;;;;4970634;28;20034;-69
2022/11/03 03:51:36;;;;;;;1.67;1.10;;;8.20;99.90;;;;;;4972109;28;20062;-70
2022/11/03 03:54:02;;;;;;;6.63;1.65;;;8.30;99.90;;;;;;4970010;28;20034;-70
2022/11/03 03:56:52;;;;;;;4.78;1.55;;;8.30;99.90;;;;;;4971817;28;20030;-69
2022/11/03 03:59:18;;;;;;;6.63;1.33;;;8.20;99.90;;;;;;4970783;28;20403;-69
2022/11/03 04:01:44;;;;;;;1.95;1.65;;;8.10;99.90;;;;;;4970789;28;20050;-70
2022/11/03 04:04:09;;;;;;;1.65;1.13;;;8.10;99.90;;;;;;4987272;28;20069;-70
2022/11/03 04:06:35;;;;;;;3.25;1.50;;;8.10;99.90;;;;;;5001116;28;20022;-70
2022/11/03 04:09:01;;;;;;;1.60;1.05;;;8.10;99.90;;;;;;4990784;28;20037;-70
2022/11/03 04:22:31;;;;;;;4.55;1.45;;;8.00;99.90;;;;;;4970826;28;20053;-69
2022/11/03 04:24:58;;;;;;;1.88;1.48;;;8.00;99.90;;;;;;4986197;28;20115;-70
2022/11/03 04:27:30;;;;;;;2.30;0.77;;;8.00;99.90;;;;;;4986408;28;20082;-70
2022/11/03 04:30:11;;;;;;;6.72;2.25;;;8.10;99.90;;;;;;4983072;28;20030;-69
2022/11/03 04:32:37;;;;;;;4.13;1.77;;;8.10;99.90;;;;;;5005305;28;20026;-69
2022/11/03 04:35:22;;;;;;;4.32;1.40;;;8.20;99.90;;;;;;4989385;28;20129;-71
2022/11/03 04:37:56;;;;;;;1.85;0.95;;;8.10;99.90;;;;;;4976157;28;20022;-69
2022/11/03 04:40:22;;;;;;;3.17;1.30;;;8.20;99.90;;;;;;4971238;28;20439;-69
2022/11/03 04:42:48;;;;;;;3.63;1.30;;;8.20;99.90;;;;;;4988029;28;20034;-69
2022/11/03 04:45:30;;;;;;;5.57;1.80;;;8.20;99.90;;;;;;4990716;28;20041;-69
2022/11/03 04:48:00;;;;;;;8.73;2.60;;;8.20;99.90;;;;;;4991025;28;20026;-69
2022/11/03 04:50:26;;;;;;;3.13;1.65;;;8.20;99.90;;;;;;5005231;28;20569;-69
2022/11/03 04:52:57;;;;;;;4.40;1.85;;;8.20;99.90;;;;;;4990316;28;20122;-70
2022/11/03 04:55:23;;;;;;;;;;;8.20;99.90;;;;;;5005931;28;20085;-69
2022/11/03 04:57:57;;;;;;;3.72;2.13;;;8.30;99.90;;;;;;4990966;28;19910;-70
2022/11/03 05:00:22;;;;;;;5.78;2.10;;;8.30;99.90;;;;;;5005849;28;20562;-69
2022/11/03 05:02:50;;;;;;;3.10;1.60;;;8.40;99.90;;;;;;5008445;28;20133;-69
2022/11/03 05:05:23;;;;;;;10.60;2.50;;;8.40;99.90;;;;;;4993898;28;20114;-69
2022/11/03 05:07:52;;;;;;;3.70;1.88;;;8.30;99.90;;;;;;5009092;28;20027;-70
2022/11/03 05:10:26;;;;;;;4.57;2.45;;;8.40;99.90;;;;;;4992113;28;20113;-69
2022/11/03 05:12:56;;;;;;;10.40;3.13;;;8.30;99.90;;;;;;4974144;28;20030;-70
2022/11/03 05:15:29;;;;;;;9.98;2.33;;;8.30;99.90;;;;;;4998407;28;20041;-70
2022/11/03 05:17:56;;;;;;;6.30;2.47;;;8.30;99.90;;;;;;4992859;28;20388;-69
2022/11/03 05:20:35;;;;;;;11.02;3.10;;;8.30;99.90;;;;;;4993625;28;20030;-70
2022/11/03 05:23:01;;;;;;;2.88;1.48;;;8.20;99.90;;;;;;5007781;28;20517;-69
2022/11/03 05:25:46;;;;;;;7.30;2.17;;;8.20;99.90;;;;;;4993594;28;20066;-70
2022/11/03 05:28:27;;;;;;;6.35;2.17;;;8.20;99.90;;;;;;4994055;28;20030;-69
2022/11/03 05:30:54;;;;;;;2.93;1.23;;;8.20;99.90;;;;;;4992370;28;20026;-70
2022/11/03 05:33:25;;;;;;;3.72;1.75;;;8.10;99.90;;;;;;4992835;28;20034;-69
2022/11/03 05:35:51;;;;;;;;;;;8.10;99.90;;;;;;4994099;28;20034;-70
2022/11/03 05:38:20;;;;;;;3.72;1.67;;;8.10;99.90;;;;;;5008792;28;20277;-70
2022/11/03 05:40:50;;;;;;;11.25;3.65;;;8.10;99.90;;;;;;5008424;28;20083;-69
2022/11/03 05:43:18;;;;;;;3.53;2.00;;;8.10;99.90;;;;;;4991380;28;20057;-70
2022/11/03 05:45:45;;;;;;;7.75;2.00;;;8.10;99.90;;;;;;4992098;28;20026;-69
2022/11/03 05:48:24;;;;;;;3.72;1.35;;;8.10;99.90;;;;;;5008450;28;20030;-69
2022/11/03 05:50:51;;;;;;;14.65;2.78;;;8.10;99.90;;;;;;5007182;28;20058;-69
2022/11/03 05:53:37;;;;;;;25.00;6.28;;;8.10;99.90;;;;;;5007530;28;20537;-69
2022/11/03 05:56:05;;;;;;;6.43;2.78;;;8.10;99.90;;;;;;5007312;28;20034;-69
2022/11/03 05:58:41;;;;;;;5.85;2.47;;;8.10;99.90;;;;;;4993004;28;20026;-69
2022/11/03 06:01:34;;;;;;;6.68;2.45;;;8.10;99.90;;;;;;5007300;28;20045;-70
2022/11/03 06:04:33;;;;;;;24.98;9.02;;;8.10;99.90;;;;;;4992043;28;20038;-70
2022/11/03 06:07:09;;;;;;;27.77;9.25;;;8.10;99.90;;;;;;5006349;28;20030;-69
2022/11/03 06:09:35;;;;;;;40.90;14.32;;;8.20;99.90;;;;;;5007130;28;20038;-70
2022/11/03 06:12:04;;;;;;;6.65;4.05;;;8.60;99.90;;;;;;4991801;28;20023;-70
2022/11/03 06:14:31;;;;;;;5.45;2.95;;;8.50;99.90;;;;;;4973489;28;20035;-70
2022/11/03 06:17:07;;;;;;;5.43;1.85;;;8.50;99.90;;;;;;5007767;28;20532;-70
2022/11/03 06:19:42;;;;;;;4.45;1.75;;;8.30;99.90;;;;;;4991439;28;20455;-70
2022/11/03 06:22:19;;;;;;;4.30;1.85;;;8.20;99.90;;;;;;4991052;28;20141;-70
2022/11/03 06:24:45;;;;;;;11.07;1.90;;;8.00;99.90;;;;;;5007286;28;20031;-70
2022/11/03 06:27:21;;;;;;;4.78;1.80;;;7.80;99.90;;;;;;5007394;28;20022;-70
2022/11/03 06:29:52;;;;;;;12.25;2.00;;;7.70;99.90;;;;;;5006904;28;20497;-70
2022/11/03 06:32:18;;;;;;;5.40;1.83;;;7.80;99.90;;;;;;4991852;28;20037;-70
2022/11/03 06:34:51;;;;;;;9.75;2.22;;;7.80;99.90;;;;;;4992429;28;20034;-70
2022/11/03 06:37:33;;;;;;;8.25;2.95;;;7.80;99.90;;;;;;5006592;28;20026;-70
2022/11/03 06:40:13;;;;;;;6.88;2.03;;;7.90;99.90;;;;;;5006920;28;20022;-70
2022/11/03 06:42:40;;;;;;;5.00;1.85;;;8.00;99.90;;;;;;4991121;28;20066;-69
2022/11/03 06:45:32;;;;;;;3.25;1.52;;;8.10;99.90;;;;;;5007090;28;20030;-70
2022/11/03 06:47:58;;;;;;;5.63;2.78;;;8.10;99.90;;;;;;4990089;28;20088;-70
2022/11/03 06:50:30;;;;;;;5.72;2.38;;;8.20;99.90;;;;;;4991975;28;20023;-70
2022/11/03 06:52:58;;;;;;;5.20;2.58;;;8.30;99.90;;;;;;4990953;28;20034;-69
2022/11/03 06:55:37;;;;;;;4.32;2.40;;;8.40;99.90;;;;;;5006560;28;20394;-70
2022/11/03 06:58:25;;;;;;;4.75;2.35;;;8.40;99.90;;;;;;5006765;28;20034;-70
2022/11/03 07:00:51;;;;;;;4.68;1.85;;;8.50;99.90;;;;;;5006245;28;20041;-72
2022/11/03 07:03:29;;;;;;;5.90;2.40;;;8.60;99.90;;;;;;4992134;28;20400;-72
2022/11/03 07:06:23;;;;;;;7.78;2.85;;;8.50;99.90;;;;;;4990840;28;20030;-73
2022/11/03 07:09:00;;;;;;;6.40;2.95;;;8.60;99.90;;;;;;5005807;28;20172;-72
2022/11/03 07:11:33;;;;;;;5.68;2.72;;;8.70;99.90;;;;;;5005853;28;20026;-72
2022/11/03 07:14:14;;;;;;;3.90;2.03;;;8.70;99.90;;;;;;4990901;28;20041;-71
2022/11/03 07:16:45;;;;;;;7.03;3.13;;;8.70;99.90;;;;;;5006646;28;20034;-70
2022/11/03 07:19:22;;;;;;;4.55;2.58;;;8.80;99.90;;;;;;4991723;28;20085;-71
2022/11/03 07:21:57;;;;;;;11.52;2.70;;;8.80;99.90;;;;;;4991691;28;20045;-72
2022/11/03 07:24:28;;;;;;;9.73;3.05;;;8.80;99.90;;;;;;5004914;28;20093;-72
2022/11/03 07:27:14;;;;;;;10.75;3.30;;;8.80;99.90;;;;;;4991374;28;20491;-72
2022/11/03 07:29:41;;;;;;;6.03;2.53;;;8.90;99.90;;;;;;5006677;28;20069;-74
2022/11/03 07:32:21;;;;;;;5.25;2.30;;;8.90;99.90;;;;;;5003753;28;20030;-73
2022/11/03 07:34:48;;;;;;;5.75;2.10;;;8.90;99.90;;;;;;5005868;28;20479;-73
2022/11/03 07:37:23;;;;;;;10.13;3.90;;;8.80;99.90;;;;;;4990151;28;20474;-73
2022/11/03 07:39:49;;;;;;;8.57;2.60;;;8.90;99.90;;;;;;4989522;28;20022;-73
2022/11/03 07:42:21;;;;;;;7.93;2.45;;;8.90;99.90;;;;;;4988311;28;20382;-73
2022/11/03 07:44:48;;;;;;;5.57;3.25;;;9.00;99.90;;;;;;4989801;28;20033;-73
2022/11/03 07:47:26;;;;;;;7.00;2.22;;;9.00;99.90;;;;;;5005976;28;20026;-73
2022/11/03 07:49:55;;;;;;;8.02;2.25;;;9.00;99.90;;;;;;5005589;28;20386;-72
2022/11/03 07:52:25;;;;;;;5.35;2.50;;;9.00;99.90;;;;;;4990069;28;20110;-75
2022/11/03 07:54:56;;;;;;;7.97;2.35;;;9.10;99.90;;;;;;4989420;28;20085;-79
2022/11/03 07:57:25;;;;;;;11.23;2.97;;;9.20;99.90;;;;;;5006016;28;20447;-72
2022/11/03 07:59:55;;;;;;;5.18;2.70;;;9.20;99.90;;;;;;4989521;28;20035;-73
2022/11/03 08:02:53;;;;;;;9.52;3.30;;;9.20;99.90;;;;;;5021333;28;20022;-73
2022/11/03 08:05:19;;;;;;;11.05;3.38;;;9.30;99.90;;;;;;5011041;28;20872;-73
2022/11/03 08:07:45;;;;;;;19.58;4.82;;;9.40;99.90;;;;;;5010780;28;20116;-73
2022/11/03 08:10:12;;;;;;;20.00;3.95;;;9.50;99.90;;;;;;4993689;28;20034;-73
2022/11/03 08:12:38;;;;;;;13.73;3.20;;;9.60;99.90;;;;;;4988961;28;20038;-73
2022/11/03 08:15:05;;;;;;;8.50;2.83;;;9.70;99.90;;;;;;4990819;28;20034;-73
2022/11/03 08:17:31;;;;;;;8.63;2.95;;;9.80;99.90;;;;;;4990585;28;20092;-73
2022/11/03 08:19:57;;;;;;;5.75;3.13;;;9.80;99.90;;;;;;4989488;28;20026;-71
2022/11/03 08:22:24;;;;;;;10.98;3.10;;;10.00;99.90;;;;;;4989937;28;20029;-72
2022/11/03 08:24:51;;;;;;;7.03;3.30;;;10.10;99.90;;;;;;4990528;28;20034;-72
2022/11/03 08:27:18;;;;;;;16.90;3.40;;;10.20;99.90;;;;;;5005813;28;20026;-72
2022/11/03 08:29:44;;;;;;;8.98;3.38;;;10.20;99.90;;;;;;5005834;28;20072;-72
2022/11/03 08:32:09;;;;;;;8.70;3.83;;;10.30;99.90;;;;;;5004899;28;20096;-72
2022/11/03 08:34:35;;;;;;;11.68;3.58;;;10.30;99.90;;;;;;5009433;28;20041;-73
2022/11/03 08:37:01;;;;;;;11.75;3.95;;;10.30;99.90;;;;;;5013964;28;20033;-74
2022/11/03 08:39:26;;;;;;;7.22;3.58;;;10.20;99.90;;;;;;5013699;28;20030;-74
2022/11/03 08:41:52;;;;;;;6.88;3.45;;;10.10;99.90;;;;;;5014303;28;20033;-75
2022/11/03 08:44:18;;;;;;;5.25;2.40;;;10.20;99.90;;;;;;5013144;28;20030;-73
2022/11/03 08:46:43;;;;;;;8.23;2.97;;;10.30;99.90;;;;;;5014040;28;20053;-73
2022/11/03 08:49:09;;;;;;;6.13;2.42;;;10.50;99.90;;;;;;5013811;28;20033;-72
2022/11/03 08:51:35;;;;;;;11.20;3.28;;;10.60;99.90;;;;;;5014246;28;20113;-73
2022/11/03 08:54:00;;;;;;;10.73;2.42;;;10.80;99.90;;;;;;5012917;28;20064;-72
2022/11/03 08:56:26;;;;;;;8.88;3.10;;;11.00;99.90;;;;;;5013725;28;20033;-75
2022/11/03 08:58:51;;;;;;;4.00;2.30;;;11.10;99.90;;;;;;5012171;28;20493;-73
2022/11/03 09:01:17;;;;;;;9.32;2.78;;;11.30;99.90;;;;;;5005591;28;20030;-76
2022/11/03 09:03:43;;;;;;;2.20;1.38;;;11.50;99.90;;;;;;4993037;28;20040;-75
2022/11/03 09:06:09;;;;;;;6.75;2.22;;;11.70;99.90;;;;;;4993840;28;20026;-75
2022/11/03 09:08:35;;;;;;;6.60;1.98;;;11.90;99.90;;;;;;4994057;28;20494;-74
2022/11/03 09:11:01;;;;;;;12.60;3.15;;;12.30;99.90;;;;;;4993704;28;20037;-71
2022/11/03 09:13:26;;;;;;;12.20;2.40;;;12.40;99.90;;;;;;4993286;28;20454;-75
2022/11/03 09:15:52;;;;;;;9.32;2.65;;;12.60;99.90;;;;;;4983049;28;20100;-74
2022/11/03 09:18:18;;;;;;;4.35;2.08;;;12.70;99.90;;;;;;4993933;28;20030;-75
2022/11/03 09:20:44;;;;;;;6.00;2.03;;;12.70;99.90;;;;;;4993832;28;20038;-73
2022/11/03 09:23:09;;;;;;;10.10;2.65;;;12.60;99.90;;;;;;4992070;28;20038;-74
2022/11/03 09:25:35;;;;;;;9.73;1.80;;;12.60;99.90;;;;;;4993481;28;20030;-73
2022/11/03 09:28:01;;;;;;;7.95;2.25;;;12.70;99.90;;;;;;4993244;28;20033;-74
2022/11/03 09:30:28;;;;;;;5.40;2.00;;;12.60;99.90;;;;;;4993918;28;20030;-72
2022/11/03 09:32:53;;;;;;;9.85;2.38;;;12.30;99.90;;;;;;5011701;28;20407;-74
2022/11/03 09:35:19;;;;;;;7.85;1.95;;;12.40;99.90;;;;;;5011658;28;20079;-74
2022/11/03 09:37:45;;;;;;;2.08;1.48;;;12.30;99.90;;;;;;5012759;28;20045;-73
2022/11/03 09:40:14;;;;;;;1.98;1.23;;;12.40;99.90;;;;;;4994990;28;20038;-73
2022/11/03 09:42:41;;;;;;;4.90;2.25;;;12.50;99.90;;;;;;5006878;28;20125;-73
2022/11/03 09:45:09;;;;;;;9.48;1.77;;;12.50;99.90;;;;;;5007331;28;20026;-73
2022/11/03 09:47:38;;;;;;;8.52;1.58;;;12.50;99.90;;;;;;4991781;28;20022;-72
2022/11/03 09:50:06;;;;;;;5.20;0.90;;;12.50;99.90;;;;;;5007309;28;20029;-74
2022/11/03 09:52:35;;;;;;;2.75;1.45;;;12.60;99.90;;;;;;5006993;28;20527;-70
2022/11/03 09:55:01;;;;;;;8.35;1.45;;;12.60;99.90;;;;;;5007189;28;20026;-71
2022/11/03 09:57:27;;;;;;;3.95;0.90;;;12.80;99.90;;;;;;4992366;28;20088;-70
2022/11/03 09:59:54;;;;;;;3.42;1.85;;;12.80;99.90;;;;;;5007504;28;20026;-69
2022/11/03 10:02:31;;;;;;;6.63;1.85;;;12.90;99.90;;;;;;5022722;28;20034;-73
2022/11/03 10:04:59;;;;;;;2.00;0.85;;;12.90;99.90;;;;;;5026796;28;20041;-73
2022/11/03 10:07:28;;;;;;;4.15;1.70;;;12.80;99.90;;;;;;5010700;28;20038;-73
2022/11/03 10:09:58;;;;;;;13.50;1.58;;;12.80;99.90;;;;;;5010952;28;20044;-73
2022/11/03 10:12:25;;;;;;;7.55;1.08;;;12.70;99.90;;;;;;5007373;28;20041;-73
2022/11/03 10:14:52;;;;;;;4.72;1.25;;;12.70;99.90;;;;;;5007394;28;20530;-72
2022/11/03 10:17:27;;;;;;;5.15;1.75;;;12.70;99.90;;;;;;4991410;28;20107;-73
2022/11/03 10:19:56;;;;;;;5.25;1.40;;;12.70;99.90;;;;;;5007664;28;20022;-73
2022/11/03 10:22:22;;;;;;;3.10;1.40;;;13.00;99.90;;;;;;5006945;28;20533;-72
2022/11/03 10:25:08;;;;;;;2.78;1.33;;;13.20;99.90;;;;;;5007451;28;20034;-73
2022/11/03 10:27:34;;;;;;;6.38;1.08;;;13.60;99.90;;;;;;5004054;28;20018;-71
2022/11/03 10:30:09;;;;;;;2.50;1.48;;;14.00;99.90;;;;;;5007600;28;20034;-74
2022/11/03 10:32:35;;;;;;;5.68;1.40;;;14.10;99.90;;;;;;5009814;28;20041;-74
2022/11/03 10:35:22;;;;;;;3.90;1.20;;;14.00;99.90;;;;;;5010444;28;20037;-74
2022/11/03 10:37:48;;;;;;;3.33;1.58;;;13.80;99.90;;;;;;5011912;28;20053;-74
2022/11/03 10:40:35;;;;;;;5.47;1.02;;;13.50;99.90;;;;;;5011576;28;20477;-73
2022/11/03 10:43:01;;;;;;;5.32;1.10;;;13.50;99.90;;;;;;5009894;28;20141;-73
2022/11/03 10:45:26;;;;;;;7.28;2.08;;;13.30;99.90;;;;;;5011991;28;20049;-73
2022/11/03 10:48:08;;;;;;;8.13;1.83;;;13.20;99.90;;;;;;5011568;28;20058;-72
2022/11/03 10:50:33;;;;;;;2.63;1.20;;;13.20;99.90;;;;;;4988105;28;20023;-73
2022/11/03 10:52:59;;;;;;;3.13;1.38;;;13.10;99.90;;;;;;4971985;28;20491;-72
2022/11/03 10:55:26;;;;;;;3.72;1.58;;;12.90;99.90;;;;;;4987329;28;20038;-72
2022/11/03 10:57:56;;;;;;;2.33;1.10;;;12.90;99.90;;;;;;4986729;28;20509;-72
2022/11/03 11:00:23;;;;;;;6.37;1.33;;;12.80;99.90;;;;;;4972434;28;20041;-73
2022/11/03 11:02:58;;;;;;;11.43;1.55;;;12.90;99.90;;;;;;5010410;28;20107;-73
2022/11/03 11:05:23;;;;;;;3.40;1.20;;;12.80;99.90;;;;;;5010201;28;20117;-72
2022/11/03 11:07:52;;;;;;;6.07;1.80;;;12.80;99.90;;;;;;5010304;28;20683;-74
2022/11/03 11:10:26;;;;;;;3.45;1.73;;;12.90;99.90;;;;;;5009655;28;20026;-74
2022/11/03 11:13:14;;;;;;;3.60;1.77;;;13.10;99.90;;;;;;5005913;28;20146;-74
2022/11/03 11:15:50;;;;;;;6.68;1.27;;;13.00;99.90;;;;;;4991489;28;20038;-73
2022/11/03 11:18:28;;;;;;;2.38;1.52;;;13.00;99.90;;;;;;4990725;28;20034;-73
2022/11/03 11:20:55;;;;;;;5.43;1.63;;;12.90;99.90;;;;;;4991649;28;20061;-73
2022/11/03 11:23:26;;;;;;;5.18;1.30;;;13.00;99.90;;;;;;4989640;28;20026;-73
2022/11/03 11:26:07;;;;;;;4.20;2.42;;;13.10;99.90;;;;;;4991271;28;20042;-74
2022/11/03 11:28:37;;;;;;;4.63;1.92;;;13.00;99.90;;;;;;4991311;28;20376;-74
2022/11/03 11:31:21;;;;;;;6.03;1.48;;;13.00;99.90;;;;;;5011309;28;20573;-74
2022/11/03 11:33:47;;;;;;;2.33;1.15;;;13.00;99.90;;;;;;5010345;28;20092;-74
2022/11/03 11:36:24;;;;;;;11.27;2.00;;;13.00;99.90;;;;;;5009489;28;20052;-75
2022/11/03 11:38:51;;;;;;;7.35;1.73;;;13.00;99.90;;;;;;4994035;28;20077;-72
2022/11/03 11:41:17;;;;;;;4.35;1.48;;;13.00;99.90;;;;;;4992749;28;20026;-76
2022/11/03 11:43:43;;;;;;;4.80;1.73;;;12.90;99.90;;;;;;4990106;28;20030;-75
2022/11/03 11:46:21;;;;;;;1.63;0.98;;;13.00;99.90;;;;;;4989488;28;20040;-74
2022/11/03 11:48:55;;;;;;;5.15;1.70;;;12.90;99.90;;;;;;4991364;28;20417;-75
2022/11/03 11:51:22;;;;;;;4.88;1.33;;;12.90;99.90;;;;;;4991134;28;20022;-73
2022/11/03 11:53:50;;;;;;;3.28;1.52;;;12.90;99.90;;;;;;5005508;28;20030;-73
2022/11/03 11:56:17;;;;;;;2.17;1.00;;;12.80;99.90;;;;;;5005971;28;20026;-73
2022/11/03 11:58:56;;;;;;;2.10;1.33;;;12.90;99.90;;;;;;4990990;28;20491;-73
2022/11/03 12:01:29;;;;;;;10.10;1.92;;;12.70;99.90;;;;;;5013718;28;20034;-74
2022/11/03 12:03:58;;;;;;;5.07;1.48;;;12.60;99.90;;;;;;5009979;28;20073;-74
2022/11/03 12:06:40;;;;;;;4.95;1.75;;;12.60;99.90;;;;;;5010506;28;20034;-73
2022/11/03 12:09:13;;;;;;;3.72;1.35;;;12.50;99.90;;;;;;5011165;28;20045;-73
2022/11/03 12:11:54;;;;;;;2.28;1.30;;;12.50;99.90;;;;;;5001953;28;20037;-72
2022/11/03 12:14:39;;;;;;;4.45;1.35;;;12.50;99.90;;;;;;4994274;28;20030;-72
2022/11/03 12:17:16;;;;;;;4.60;2.40;;;12.50;99.90;;;;;;4994924;28;20121;-71
2022/11/03 12:19:46;;;;;;;4.03;1.25;;;12.50;99.90;;;;;;4994857;28;20045;-70
2022/11/03 12:22:39;;;;;;;4.45;1.58;;;12.60;99.90;;;;;;4994736;28;20050;-71
2022/11/03 12:25:34;;;;;;;2.47;1.13;;;12.70;99.90;;;;;;4993468;28;20048;-72
2022/11/03 12:28:00;;;;;;;8.77;3.28;;;12.80;99.90;;;;;;4994729;28;20662;-71
2022/11/03 12:30:26;;;;;;;9.50;1.85;;;12.90;99.90;;;;;;4994946;28;20076;-71
2022/11/03 12:32:52;;;;;;;13.55;2.25;;;13.00;99.90;;;;;;5013383;28;20062;-71
2022/11/03 12:35:18;;;;;;;14.93;3.63;;;13.20;99.90;;;;;;5014241;28;20030;-70
2022/11/03 12:37:43;;;;;;;6.97;1.98;;;13.20;99.90;;;;;;5013280;28;20080;-72
2022/11/03 12:40:12;;;;;;;7.07;2.20;;;13.20;99.90;;;;;;5013824;28;20038;-72
2022/11/03 12:42:38;;;;;;;10.73;1.73;;;13.10;99.90;;;;;;4977631;28;20461;-71
2022/11/03 12:45:06;;;;;;;3.13;1.65;;;13.30;99.90;;;;;;4973545;28;20111;-71
2022/11/03 12:47:31;;;;;;;7.47;2.13;;;13.40;99.90;;;;;;4973900;28;20063;-70
2022/11/03 12:49:57;;;;;;;9.85;2.13;;;13.50;99.90;;;;;;4949865;28;20089;-72
2022/11/03 12:52:25;;;;;;;12.48;1.90;;;13.60;99.90;;;;;;4979716;28;20026;-70
2022/11/03 12:54:51;;;;;;;7.10;2.35;;;13.60;99.90;;;;;;5008931;28;20705;-71
2022/11/03 12:57:20;;;;;;;8.13;2.47;;;13.60;99.90;;;;;;4992976;28;20034;-70
2022/11/03 12:59:45;;;;;;;4.78;2.08;;;13.60;99.90;;;;;;4992934;28;20093;-70
2022/11/03 13:02:11;;;;;;;7.75;1.77;;;13.50;99.90;;;;;;5007220;28;20030;-71
2022/11/03 13:04:37;;;;;;;11.57;2.92;;;13.60;99.90;;;;;;5013344;28;20038;-71
2022/11/03 13:07:02;;;;;;;15.18;2.78;;;13.50;99.90;;;;;;5012022;28;20092;-71
2022/11/03 13:09:28;;;;;;;5.78;1.75;;;13.60;99.90;;;;;;5012205;28;20048;-71
2022/11/03 13:14:38;;;;;;;5.28;1.80;;;13.20;99.90;;;;;;4994783;28;20571;-71
2022/11/03 13:17:04;;;;;;;6.38;2.08;;;13.20;99.90;;;;;;4992343;28;20125;-71
2022/11/03 13:19:29;;;;;;;2.97;1.67;;;13.20;99.90;;;;;;4993806;28;20062;-71
2022/11/03 13:21:55;;;;;;;6.95;2.22;;;13.20;99.90;;;;;;4992953;28;20037;-71
2022/11/03 13:24:21;;;;;;;11.77;2.85;;;13.30;99.90;;;;;;4992948;28;20026;-71
2022/11/03 13:26:47;;;;;;;9.48;2.03;;;13.30;99.90;;;;;;4993954;28;20509;-71
2022/11/03 13:29:12;;;;;;;7.70;2.03;;;13.20;99.90;;;;;;4993329;28;20041;-71
2022/11/03 13:31:38;;;;;;;1.95;1.30;;;13.30;99.90;;;;;;5003666;28;20096;-71